Flight Number: EUR1533 Duration: 1:30
Departure: Barra Airport (EGPR) at 08:15 Distance: 272 Nm
Arrival: Liverpool Airport (EGGP) at 09:45 Equipment: B1900D

Weather Information
404 Not Found

Not Found

The requested URL /data/observations/metar/decoded/EGPR.TXT was not found on this server.


Sunrise: 05:07 Sunset: 20:00 (UTC)

Liverpool Airport , United Kingdom (EGGP) 53-20N 002-51W Aug 17, 2018 - 04:50 PM EDT / 2018.08.17 2050 UTC
Wind: from the SW (230 degrees) at 12 MPH (10 KT):0
Visibility: greater than 7 mile(s):0
Sky conditions: partly cloudy Temperature: 62 F (17 C) Dew Point: 55 F (13 C) Relative Humidity: 77% Pressure (altimeter): 30.03 in. Hg (1017 hPa)
ob: EGGP 172050Z 23010KT 9999 SCT021 17/13 Q1017 cycle: 21
Sunrise: 05:00 Sunset: 19:30 (UTC)

TAF:2018/08/17 18:15 TAF EGGP 171655Z 1718/1818 23012KT 9999 SCT022 PROB40 TEMPO 1718/1724 9000 -RA BKN014 PROB30 TEMPO 1718/1806 24016G26KT

Previous Pireps for this route
Date Aircraft Flight time Fuel used Landing rate On time
2015-05-09B1900D01.391005-381Charter
2016-02-28B1900D01.12981-386Yes
2016-10-11B1900D01.121066-181No
2018-04-04B1900D1.341188-630Yes
(pireps marked green are flown by you)

Route map